createdAt,value
2022-09-06T00:03:10.224Z,78.09
2022-09-06T00:08:12.313Z,78.32
2022-09-06T00:13:14.400Z,78.34
2022-09-06T00:18:19.120Z,78.42
2022-09-06T00:23:21.904Z,78.75
2022-09-06T00:28:23.979Z,78.72
2022-09-06T00:33:26.101Z,78.87
2022-09-06T00:38:28.414Z,78.99
2022-09-06T00:43:30.815Z,79.11
2022-09-06T00:48:34.490Z,79.12
2022-09-06T00:53:37.522Z,79.08
2022-09-06T00:58:39.544Z,79.32
2022-09-06T01:03:41.811Z,79.01
2022-09-06T01:08:50.997Z,79.15
2022-09-06T01:13:59.147Z,78.88
2022-09-06T01:21:43.869Z,79.05
2022-09-06T01:26:45.890Z,78.92
2022-09-06T01:32:05.752Z,78.88
2022-09-06T01:37:14.513Z,78.97
2022-09-06T01:42:29.307Z,79.23
2022-09-06T01:47:58.947Z,78.87
2022-09-06T01:53:19.203Z,79.37
2022-09-06T01:58:36.123Z,79.11
2022-09-06T02:03:49.671Z,79.21
2022-09-06T02:08:59.338Z,78.93
2022-09-06T02:14:14.681Z,79.18
2022-09-06T02:19:20.639Z,78.96
2022-09-06T02:24:31.844Z,79.16
2022-09-06T02:29:35.823Z,79.04
2022-09-06T02:34:40.234Z,78.96
2022-09-06T02:39:42.859Z,79.00
2022-09-06T02:44:45.071Z,78.96
2022-09-06T02:55:09.409Z,78.97
2022-09-06T03:07:34.719Z,78.29
2022-09-06T03:12:39.004Z,78.27
2022-09-06T03:17:42.239Z,78.42
2022-09-06T03:22:44.189Z,78.18
2022-09-06T03:27:57.864Z,78.20
2022-09-06T03:33:05.494Z,78.16
2022-09-06T03:38:08.120Z,78.00
2022-09-06T03:43:10.273Z,77.93
2022-09-06T03:48:12.584Z,77.68
2022-09-06T03:53:15.794Z,77.68
2022-09-06T03:58:19.413Z,77.78
2022-09-06T04:03:22.111Z,77.77
2022-09-06T04:08:24.115Z,77.79
2022-09-06T04:13:29.247Z,77.61
2022-09-06T04:18:34.165Z,77.69
2022-09-06T04:29:02.290Z,77.54
2022-09-06T04:34:04.935Z,77.80
2022-09-06T04:39:06.973Z,77.58
2022-09-06T04:44:08.890Z,78.21
2022-09-06T04:49:11.015Z,78.21
2022-09-06T04:54:16.342Z,78.25
2022-09-06T04:59:21.182Z,78.13
2022-09-06T05:04:26.907Z,78.08
2022-09-06T05:09:29.614Z,78.19
2022-09-06T05:14:35.345Z,77.94
2022-09-06T05:19:37.339Z,78.16
2022-09-06T05:24:39.474Z,78.08
2022-09-06T05:29:41.539Z,77.93
2022-09-06T05:34:43.637Z,77.85
2022-09-06T05:39:45.763Z,77.87
2022-09-06T05:44:50.581Z,77.78
2022-09-06T05:50:00.141Z,77.88
2022-09-06T05:55:03.357Z,77.85
2022-09-06T06:00:13.789Z,77.34
2022-09-06T06:05:20.227Z,77.28
2022-09-06T06:10:27.661Z,76.76
2022-09-06T06:15:32.862Z,76.79
2022-09-06T06:20:35.568Z,76.44
2022-09-06T06:25:52.319Z,76.11
2022-09-06T06:30:54.640Z,75.87
2022-09-06T06:36:17.373Z,75.05
2022-09-06T06:41:24.103Z,75.53
2022-09-06T06:46:31.500Z,75.05
2022-09-06T06:51:38.291Z,75.10
2022-09-06T06:56:45.932Z,74.98
2022-09-06T07:01:49.970Z,74.45
2022-09-06T07:12:18.575Z,73.12
2022-09-06T07:17:22.138Z,72.20
2022-09-06T07:22:26.404Z,72.28
2022-09-06T07:32:52.933Z,70.34
2022-09-06T07:38:07.246Z,69.30
2022-09-06T07:43:10.265Z,68.75
2022-09-06T07:48:15.973Z,68.22
2022-09-06T07:53:31.080Z,67.55
2022-09-06T07:58:45.849Z,67.29
2022-09-06T08:03:52.481Z,66.78
2022-09-06T08:08:59.751Z,66.50
2022-09-06T08:14:05.015Z,66.20
2022-09-06T08:19:09.842Z,65.33
2022-09-06T08:24:11.845Z,65.31
2022-09-06T08:29:14.371Z,64.41
2022-09-06T08:34:16.499Z,64.08
2022-09-06T08:39:27.458Z,63.88
2022-09-06T08:50:15.198Z,62.88
2022-09-06T08:56:28.402Z,60.65
2022-09-06T09:01:47.962Z,60.83
2022-09-06T09:07:03.211Z,61.40
2022-09-06T09:12:07.327Z,61.29
2022-09-06T09:17:24.060Z,60.51
2022-09-06T09:22:26.145Z,61.32
2022-09-06T09:33:29.250Z,58.64
2022-09-06T09:38:45.922Z,58.94
2022-09-06T09:44:06.655Z,59.69
2022-09-06T09:49:11.930Z,60.19
2022-09-06T09:54:30.195Z,60.50
2022-09-06T09:59:46.231Z,60.10
2022-09-06T10:04:58.081Z,60.47
2022-09-06T10:10:12.947Z,60.88
2022-09-06T10:15:41.612Z,60.65
2022-09-06T10:20:54.618Z,60.85
2022-09-06T10:26:13.314Z,59.51
2022-09-06T10:31:43.658Z,60.41
2022-09-06T10:36:50.861Z,60.90
2022-09-06T10:42:11.241Z,58.85
2022-09-06T10:47:19.617Z,58.34
2022-09-06T10:52:36.400Z,58.67
2022-09-06T11:09:11.371Z,57.65
2022-09-06T11:14:15.230Z,58.12
2022-09-06T11:19:32.530Z,56.59
2022-09-06T11:24:58.872Z,57.79
2022-09-06T11:30:10.732Z,57.52
2022-09-06T11:35:33.501Z,57.72
2022-09-06T11:40:46.867Z,57.60
2022-09-06T11:45:51.863Z,58.34
2022-09-06T11:50:54.981Z,58.81
2022-09-06T11:56:00.157Z,57.70
2022-09-06T12:06:44.010Z,59.52
2022-09-06T12:11:46.745Z,61.10
2022-09-06T12:16:58.169Z,61.95
2022-09-06T12:22:00.133Z,61.33
2022-09-06T12:27:15.774Z,60.45
2022-09-06T12:32:26.496Z,60.67
2022-09-06T12:37:54.318Z,60.92
2022-09-06T12:42:56.865Z,61.08
2022-09-06T12:48:11.804Z,61.54
2022-09-06T12:53:24.752Z,60.78
2022-09-06T12:58:49.945Z,61.33
2022-09-06T13:04:03.021Z,61.05
2022-09-06T13:09:33.906Z,61.30
2022-09-06T13:14:36.282Z,61.27
2022-09-06T13:19:52.990Z,62.13
2022-09-06T13:24:56.556Z,62.80
2022-09-06T13:30:30.127Z,63.43
2022-09-06T13:35:37.284Z,62.55
2022-09-06T13:41:06.759Z,62.77
2022-09-06T13:46:07.799Z,61.92
2022-09-06T13:51:10.258Z,61.46
2022-09-06T13:56:12.348Z,60.74
2022-09-06T14:01:14.854Z,62.23
2022-09-06T14:06:16.894Z,62.48
2022-09-06T14:11:19.863Z,62.23
2022-09-06T14:16:25.171Z,62.31
2022-09-06T14:21:27.319Z,62.16
2022-09-06T14:26:29.971Z,64.10
2022-09-06T14:31:35.112Z,64.72
2022-09-06T14:36:37.786Z,64.84
2022-09-06T14:41:40.253Z,65.08
2022-09-06T14:46:42.723Z,65.96
2022-09-06T14:51:46.184Z,66.03
2022-09-06T14:56:50.117Z,66.23
2022-09-06T15:01:55.412Z,65.89
2022-09-06T15:06:58.540Z,66.56
2022-09-06T15:12:01.917Z,66.80
2022-09-06T15:17:08.906Z,68.05
2022-09-06T15:22:10.895Z,68.19
2022-09-06T15:27:13.477Z,67.89
2022-09-06T15:32:16.049Z,67.93
2022-09-06T15:37:19.562Z,68.06
2022-09-06T15:42:24.463Z,67.97
2022-09-06T15:47:30.300Z,68.15
2022-09-06T15:52:32.802Z,68.59
2022-09-06T15:57:34.906Z,68.54
2022-09-06T16:03:08.243Z,68.53
2022-09-06T16:08:12.235Z,68.93
2022-09-06T16:13:19.766Z,68.85
2022-09-06T16:18:26.680Z,68.82
2022-09-06T16:23:31.496Z,68.83
2022-09-06T16:28:37.738Z,68.71
2022-09-06T16:33:45.989Z,68.37
2022-09-06T16:38:50.330Z,68.60
2022-09-06T16:43:54.562Z,69.03
2022-09-06T16:49:10.010Z,70.24
2022-09-06T16:54:12.820Z,70.22
2022-09-06T16:59:28.714Z,70.62
2022-09-06T17:04:35.067Z,70.87
2022-09-06T17:09:45.549Z,71.32
2022-09-06T17:14:50.711Z,70.52
2022-09-06T17:19:52.695Z,71.04
2022-09-06T17:24:54.710Z,71.30
2022-09-06T17:29:56.831Z,71.34
2022-09-06T17:34:58.917Z,71.05
2022-09-06T17:40:01.130Z,71.24
2022-09-06T17:45:03.447Z,71.35
2022-09-06T17:50:06.130Z,71.75
2022-09-06T17:55:08.377Z,71.78
2022-09-06T18:00:11.386Z,72.01
2022-09-06T18:05:13.773Z,71.83
2022-09-06T18:10:20.291Z,72.32
2022-09-06T18:15:22.485Z,72.49
2022-09-06T18:20:29.982Z,72.45
2022-09-06T18:25:31.991Z,72.54
2022-09-06T18:30:34.011Z,72.74
2022-09-06T18:35:41.902Z,72.84
2022-09-06T18:41:36.024Z,72.85
2022-09-06T18:46:43.370Z,72.81
2022-09-06T18:51:48.115Z,72.74
2022-09-06T18:57:26.282Z,73.54
2022-09-06T19:02:28.840Z,73.14
2022-09-06T19:07:31.168Z,72.75
2022-09-06T19:12:33.586Z,72.84
2022-09-06T19:17:35.942Z,72.99
2022-09-06T19:22:46.365Z,72.92
2022-09-06T19:33:36.049Z,72.90
2022-09-06T19:39:02.130Z,73.14
2022-09-06T19:44:18.664Z,73.42
2022-09-06T19:49:21.153Z,74.34
2022-09-06T19:54:35.704Z,73.64
2022-09-06T19:59:53.847Z,73.72
2022-09-06T20:04:55.787Z,73.52
2022-09-06T20:09:58.205Z,73.03
2022-09-06T20:15:00.272Z,73.01
2022-09-06T20:20:02.931Z,73.05
2022-09-06T20:25:07.430Z,72.80
2022-09-06T20:30:10.367Z,72.91
2022-09-06T20:35:12.928Z,73.19
2022-09-06T20:40:15.065Z,73.57
2022-09-06T20:45:19.291Z,73.74
2022-09-06T20:50:21.340Z,73.97
2022-09-06T20:55:23.487Z,73.98
2022-09-06T21:00:42.191Z,74.67
2022-09-06T21:05:46.871Z,74.55
2022-09-06T21:10:55.935Z,74.42
2022-09-06T21:16:02.261Z,74.31
2022-09-06T21:21:13.565Z,74.50
2022-09-06T21:26:17.617Z,74.81
2022-09-06T21:31:36.297Z,74.30
2022-09-06T21:36:39.891Z,74.58
2022-09-06T21:41:44.017Z,74.18
2022-09-06T21:46:46.309Z,73.84
2022-09-06T21:51:48.459Z,73.13
2022-09-06T21:56:50.598Z,71.38
2022-09-06T22:01:52.989Z,70.76
2022-09-06T22:06:55.026Z,70.04
2022-09-06T22:11:57.159Z,69.70
2022-09-06T22:16:59.550Z,69.41
2022-09-06T22:22:01.553Z,68.93
2022-09-06T22:27:03.628Z,68.95
2022-09-06T22:32:05.855Z,68.45
2022-09-06T22:37:08.016Z,68.38
2022-09-06T22:42:10.014Z,68.00
2022-09-06T22:47:12.001Z,68.01
2022-09-06T22:52:14.042Z,68.07
2022-09-06T22:57:15.986Z,68.32
2022-09-06T23:02:21.684Z,67.97
2022-09-06T23:07:28.133Z,67.63
2022-09-06T23:12:31.006Z,68.11
2022-09-06T23:17:33.207Z,67.81
2022-09-06T23:22:35.254Z,67.28
2022-09-06T23:27:37.289Z,66.85
2022-09-06T23:32:39.262Z,66.47
2022-09-06T23:37:41.448Z,66.28
2022-09-06T23:42:43.425Z,66.35
2022-09-06T23:47:48.029Z,66.27
2022-09-06T23:52:50.068Z,65.94
2022-09-06T23:57:52.004Z,66.36
